createdAt,value
2018-04-29T00:00:22.489Z,37.43
2018-04-29T00:02:48.565Z,37.13
2018-04-29T00:05:14.640Z,31.70
2018-04-29T00:07:40.788Z,34.70
2018-04-29T00:10:07.061Z,35.43
2018-04-29T00:12:33.088Z,31.37
2018-04-29T00:14:59.121Z,40.83
2018-04-29T00:17:25.178Z,37.00
2018-04-29T00:19:51.204Z,34.40
2018-04-29T00:22:17.601Z,38.33
2018-04-29T00:24:43.657Z,38.13
2018-04-29T00:27:09.693Z,35.20
2018-04-29T00:29:35.849Z,36.93
2018-04-29T00:32:01.881Z,37.37
2018-04-29T00:34:28.340Z,36.23
2018-04-29T00:36:54.384Z,37.47
2018-04-29T00:39:20.391Z,34.60
2018-04-29T00:41:46.441Z,36.27
2018-04-29T00:44:12.465Z,38.07
2018-04-29T00:46:38.501Z,36.53
2018-04-29T00:49:04.587Z,37.63
2018-04-29T00:51:42.846Z,38.43
2018-04-29T00:54:08.916Z,38.63
2018-04-29T00:56:34.964Z,36.40
2018-04-29T00:59:01.009Z,32.47
2018-04-29T01:01:27.069Z,34.07
2018-04-29T01:03:53.673Z,34.00
2018-04-29T01:06:19.845Z,37.13
2018-04-29T01:08:45.884Z,37.37
2018-04-29T01:11:11.942Z,36.20
2018-04-29T01:13:38.017Z,34.83
2018-04-29T01:16:04.033Z,39.37
2018-04-29T01:18:30.377Z,42.47
2018-04-29T01:20:56.738Z,37.83
2018-04-29T01:23:22.763Z,33.83
2018-04-29T01:25:48.824Z,34.40
2018-04-29T01:28:15.073Z,38.27
2018-04-29T01:30:41.109Z,37.47
2018-04-29T01:33:07.142Z,40.97
2018-04-29T01:35:33.221Z,42.27
2018-04-29T01:37:59.252Z,39.90
2018-04-29T01:40:25.325Z,38.73
2018-04-29T01:42:51.749Z,46.47
2018-04-29T01:45:17.800Z,39.77
2018-04-29T01:47:43.823Z,35.00
2018-04-29T01:50:09.832Z,40.07
2018-04-29T01:52:36.125Z,44.20
2018-04-29T01:55:02.174Z,40.27
2018-04-29T01:57:28.217Z,39.63
2018-04-29T01:59:54.245Z,40.20
2018-04-29T02:02:20.762Z,40.30
2018-04-29T02:04:46.805Z,39.17
2018-04-29T02:07:13.219Z,41.10
2018-04-29T02:09:39.252Z,40.57
2018-04-29T02:12:05.326Z,37.27
2018-04-29T02:14:31.345Z,37.67
2018-04-29T02:16:57.391Z,39.30
2018-04-29T02:19:23.488Z,37.10
2018-04-29T02:21:49.509Z,39.27
2018-04-29T02:24:15.526Z,41.33
2018-04-29T02:26:41.541Z,40.57
2018-04-29T02:29:07.584Z,38.43
2018-04-29T02:31:33.653Z,40.20
2018-04-29T02:34:00.097Z,40.23
2018-04-29T02:36:26.122Z,41.37
2018-04-29T02:38:52.268Z,54.00
2018-04-29T02:41:18.298Z,39.57
2018-04-29T02:43:44.364Z,36.27
2018-04-29T02:46:10.400Z,44.20
2018-04-29T02:48:36.413Z,49.30
2018-04-29T02:51:02.466Z,42.80
2018-04-29T02:53:28.526Z,47.40
2018-04-29T02:55:54.601Z,54.33
2018-04-29T02:58:20.733Z,48.73
2018-04-29T03:00:46.805Z,51.10
2018-04-29T03:03:12.825Z,50.10
2018-04-29T03:05:38.893Z,52.63
2018-04-29T03:08:04.964Z,52.53
2018-04-29T03:10:30.982Z,50.63
2018-04-29T03:12:57.005Z,52.77
2018-04-29T03:15:23.521Z,51.27
2018-04-29T03:17:49.665Z,55.23
2018-04-29T03:20:15.736Z,60.53
2018-04-29T03:22:41.761Z,53.50
2018-04-29T03:25:07.772Z,48.80
2018-04-29T03:27:33.917Z,42.87
2018-04-29T03:30:00.703Z,40.00
2018-04-29T03:32:26.977Z,44.83
2018-04-29T03:34:52.993Z,35.60
2018-04-29T03:37:19.037Z,44.70
2018-04-29T03:39:45.057Z,41.90
2018-04-29T03:42:11.821Z,40.60
2018-04-29T03:44:37.885Z,46.20
2018-04-29T03:47:03.908Z,64.40
2018-04-29T03:49:29.973Z,51.40
2018-04-29T03:51:56.749Z,55.03
2018-04-29T03:54:22.781Z,64.10
2018-04-29T03:56:48.960Z,53.10
2018-04-29T03:59:27.414Z,54.30
2018-04-29T04:02:05.624Z,50.77
2018-04-29T04:04:31.644Z,54.53
2018-04-29T04:06:57.861Z,48.93
2018-04-29T04:09:23.904Z,52.17
2018-04-29T04:11:49.950Z,49.33
2018-04-29T04:14:15.962Z,40.23
2018-04-29T04:16:41.978Z,42.60
2018-04-29T04:19:08.073Z,44.20
2018-04-29T04:21:34.857Z,48.43
2018-04-29T04:24:00.897Z,40.73
2018-04-29T04:26:26.915Z,40.80
2018-04-29T04:28:52.952Z,51.83
2018-04-29T04:31:18.998Z,43.83
2018-04-29T04:33:45.050Z,47.50
2018-04-29T04:36:11.063Z,48.47
2018-04-29T04:38:37.423Z,50.20
2018-04-29T04:41:03.445Z,49.23
2018-04-29T04:43:29.504Z,52.47
2018-04-29T04:45:55.537Z,54.23
2018-04-29T04:48:21.595Z,56.13
2018-04-29T04:50:47.623Z,46.33
2018-04-29T04:53:13.649Z,43.93
2018-04-29T04:55:39.745Z,51.93
2018-04-29T04:58:05.841Z,48.90
2018-04-29T05:00:31.838Z,59.43
2018-04-29T05:02:57.853Z,60.83
2018-04-29T05:05:23.873Z,48.40
2018-04-29T05:07:49.925Z,55.80
2018-04-29T05:10:15.966Z,49.50
2018-04-29T05:12:42.029Z,53.57
2018-04-29T05:15:08.073Z,55.90
2018-04-29T05:17:34.184Z,52.23
2018-04-29T05:20:00.353Z,58.40
2018-04-29T05:22:26.391Z,50.80
2018-04-29T05:24:52.461Z,52.47
2018-04-29T05:27:18.545Z,48.67
2018-04-29T05:29:45.317Z,52.10
2018-04-29T05:32:11.373Z,50.67
2018-04-29T05:34:37.423Z,48.03
2018-04-29T05:37:03.484Z,52.60
2018-04-29T05:39:29.520Z,50.17
2018-04-29T05:41:56.505Z,49.73
2018-04-29T05:44:22.579Z,55.10
2018-04-29T05:46:48.608Z,67.30
2018-04-29T05:49:15.813Z,61.13
2018-04-29T05:51:41.853Z,58.13
2018-04-29T05:54:08.029Z,64.70
2018-04-29T05:56:34.117Z,64.67
2018-04-29T05:59:00.173Z,54.60
2018-04-29T06:01:26.240Z,58.10
2018-04-29T06:03:52.264Z,65.90
2018-04-29T06:06:18.269Z,66.77
2018-04-29T06:08:45.017Z,65.77
2018-04-29T06:11:11.049Z,63.80
2018-04-29T06:13:37.117Z,65.20
2018-04-29T06:16:03.963Z,60.67
2018-04-29T06:18:29.942Z,72.07
2018-04-29T06:20:56.014Z,65.27
2018-04-29T06:23:22.038Z,69.13
2018-04-29T06:25:48.901Z,73.67
2018-04-29T06:28:15.257Z,68.73
2018-04-29T06:30:41.277Z,60.00
2018-04-29T06:33:07.352Z,58.57
2018-04-29T06:35:33.665Z,60.83
2018-04-29T06:37:59.709Z,63.73
2018-04-29T06:40:25.736Z,72.90
2018-04-29T06:42:51.793Z,65.63
2018-04-29T06:45:17.853Z,66.17
2018-04-29T06:47:43.892Z,63.93
2018-04-29T06:50:09.946Z,68.10
2018-04-29T06:52:35.956Z,63.10
2018-04-29T06:55:02.022Z,69.43
2018-04-29T06:57:28.237Z,75.63
2018-04-29T06:59:54.253Z,88.63
2018-04-29T07:02:21.061Z,81.47
2018-04-29T07:04:47.097Z,68.20
2018-04-29T07:07:13.123Z,88.67
2018-04-29T07:09:39.194Z,90.33
2018-04-29T07:12:05.737Z,81.17
2018-04-29T07:14:31.800Z,68.40
2018-04-29T07:16:57.817Z,65.53
2018-04-29T07:19:23.977Z,63.97
2018-04-29T07:21:50.005Z,66.63
2018-04-29T07:24:16.030Z,73.47
2018-04-29T07:26:42.698Z,79.40
2018-04-29T07:29:08.925Z,74.30
2018-04-29T07:31:35.068Z,96.63
2018-04-29T07:34:01.056Z,86.63
2018-04-29T07:36:27.094Z,68.73
2018-04-29T07:38:53.208Z,106.67
2018-04-29T07:41:19.257Z,90.90
2018-04-29T07:43:45.473Z,98.23
2018-04-29T07:46:11.526Z,72.73
2018-04-29T07:48:37.557Z,94.47
2018-04-29T07:51:04.161Z,128.87
2018-04-29T07:53:30.208Z,106.30
2018-04-29T07:55:56.237Z,114.47
2018-04-29T07:58:22.417Z,122.80
2018-04-29T08:00:48.472Z,137.87
2018-04-29T08:03:14.557Z,112.63
2018-04-29T08:05:41.385Z,74.37
2018-04-29T08:08:07.405Z,72.93
2018-04-29T08:10:33.461Z,70.93
2018-04-29T08:12:59.500Z,73.73
2018-04-29T08:15:25.978Z,71.53
2018-04-29T08:17:51.995Z,65.47
2018-04-29T08:20:18.023Z,75.00
2018-04-29T08:22:44.343Z,71.30
2018-04-29T08:25:10.371Z,73.00
2018-04-29T08:27:36.413Z,74.97
2018-04-29T08:30:02.510Z,78.23
2018-04-29T08:32:28.542Z,76.30
2018-04-29T08:34:54.574Z,65.90
2018-04-29T08:37:20.595Z,64.47
2018-04-29T08:39:47.104Z,61.30
2018-04-29T08:42:13.741Z,65.90
2018-04-29T08:44:39.769Z,77.63
2018-04-29T08:47:05.809Z,65.07
2018-04-29T08:49:31.927Z,80.70
2018-04-29T08:51:57.917Z,76.60
2018-04-29T08:54:24.013Z,77.40
2018-04-29T08:56:50.057Z,64.60
2018-04-29T08:59:16.522Z,73.03
2018-04-29T09:01:42.573Z,82.57
2018-04-29T09:04:09.433Z,90.47
2018-04-29T09:06:35.489Z,83.80
2018-04-29T09:09:01.534Z,59.50
2018-04-29T09:11:27.559Z,86.37
2018-04-29T09:13:53.614Z,94.83
2018-04-29T09:16:19.697Z,97.77
2018-04-29T09:18:45.760Z,98.50
2018-04-29T09:21:11.789Z,75.93
2018-04-29T09:23:37.807Z,80.27
2018-04-29T09:26:03.830Z,101.07
2018-04-29T09:28:29.927Z,86.43
2018-04-29T09:30:55.997Z,95.43
2018-04-29T09:33:22.018Z,77.37
2018-04-29T09:35:48.042Z,90.20
2018-04-29T09:38:14.537Z,82.60
2018-04-29T09:40:40.626Z,100.07
2018-04-29T09:43:06.715Z,90.53
2018-04-29T09:45:32.742Z,92.33
2018-04-29T09:47:58.813Z,90.90
2018-04-29T09:50:24.846Z,92.97
2018-04-29T09:52:50.961Z,89.63
2018-04-29T09:55:17.138Z,111.53
2018-04-29T09:57:43.117Z,126.40
2018-04-29T10:00:09.201Z,73.43
2018-04-29T10:02:35.249Z,80.13
2018-04-29T10:05:02.042Z,103.97
2018-04-29T10:07:28.093Z,83.77
2018-04-29T10:09:54.693Z,94.30
2018-04-29T10:12:20.729Z,92.00
2018-04-29T10:14:46.764Z,80.07
2018-04-29T10:17:13.146Z,87.93
2018-04-29T10:19:39.223Z,62.50
2018-04-29T10:22:05.298Z,75.53
2018-04-29T10:24:31.677Z,78.67
2018-04-29T10:26:57.685Z,66.47
2018-04-29T10:29:23.723Z,66.53
2018-04-29T10:31:49.869Z,68.47
2018-04-29T10:34:15.905Z,55.87
2018-04-29T10:36:41.925Z,59.10
2018-04-29T10:39:08.031Z,60.97
2018-04-29T10:41:34.081Z,79.57
2018-04-29T10:44:00.905Z,63.40
2018-04-29T10:46:27.177Z,60.67
2018-04-29T10:48:53.254Z,60.97
2018-04-29T10:51:19.761Z,72.70
2018-04-29T10:53:45.813Z,61.17
2018-04-29T10:56:11.889Z,56.53
2018-04-29T10:58:37.919Z,58.00
2018-04-29T11:01:03.961Z,54.37
2018-04-29T11:03:30.021Z,57.47
2018-04-29T11:05:56.250Z,52.93
2018-04-29T11:08:22.379Z,51.87
2018-04-29T11:10:48.409Z,48.70
2018-04-29T11:13:14.458Z,47.50
2018-04-29T11:15:40.469Z,53.23
2018-04-29T11:18:07.272Z,53.20
2018-04-29T11:20:33.390Z,41.80
2018-04-29T11:22:59.396Z,46.00
2018-04-29T11:25:25.541Z,40.23
2018-04-29T11:27:51.596Z,39.63
2018-04-29T11:30:18.198Z,43.77
2018-04-29T11:32:44.354Z,34.07
2018-04-29T11:35:10.389Z,36.60
2018-04-29T11:37:36.464Z,36.63
2018-04-29T11:40:02.537Z,34.73
2018-04-29T11:42:28.917Z,35.00
2018-04-29T11:44:54.973Z,34.83
2018-04-29T11:47:21.000Z,33.47
2018-04-29T11:49:47.131Z,30.00
2018-04-29T11:52:13.174Z,32.87
2018-04-29T11:54:39.221Z,37.10
2018-04-29T11:57:05.325Z,30.03
2018-04-29T11:59:31.361Z,31.20
2018-04-29T12:01:58.221Z,32.20
2018-04-29T12:04:24.161Z,31.93
2018-04-29T12:06:50.411Z,30.93
2018-04-29T12:09:16.561Z,28.73
2018-04-29T12:11:42.569Z,28.93
2018-04-29T12:14:09.085Z,29.43
2018-04-29T12:16:35.105Z,28.03
2018-04-29T12:19:01.136Z,28.27
2018-04-29T12:21:27.303Z,31.03
2018-04-29T12:23:53.357Z,29.13
2018-04-29T12:26:19.379Z,29.77
2018-04-29T12:28:45.576Z,28.43
2018-04-29T12:31:11.677Z,28.40
2018-04-29T12:33:37.772Z,27.70
2018-04-29T12:36:04.826Z,29.33
2018-04-29T12:38:31.365Z,32.90
2018-04-29T12:40:57.433Z,30.57
2018-04-29T12:43:23.512Z,28.50
2018-04-29T12:45:49.558Z,30.17
2018-04-29T12:48:15.597Z,28.70
2018-04-29T12:50:42.758Z,31.17
2018-04-29T12:53:09.152Z,29.37
2018-04-29T12:55:35.365Z,28.77
2018-04-29T12:58:01.425Z,27.47
2018-04-29T13:00:27.454Z,29.23
2018-04-29T13:02:54.474Z,29.60
2018-04-29T13:05:20.489Z,29.13
2018-04-29T13:07:46.573Z,29.90
2018-04-29T13:10:12.618Z,30.63
2018-04-29T13:12:38.716Z,28.77
2018-04-29T13:15:04.749Z,30.03
2018-04-29T13:17:30.764Z,31.30
2018-04-29T13:19:56.837Z,27.60
2018-04-29T13:22:23.069Z,29.17
2018-04-29T13:24:49.097Z,28.93
2018-04-29T13:27:15.130Z,25.07
2018-04-29T13:29:41.447Z,27.23
2018-04-29T13:32:07.428Z,27.70
2018-04-29T13:34:33.491Z,27.77
2018-04-29T13:36:59.515Z,31.20
2018-04-29T13:39:25.580Z,26.67
2018-04-29T13:41:51.633Z,29.50
2018-04-29T13:44:17.729Z,30.67
2018-04-29T13:46:43.746Z,29.00
2018-04-29T13:49:09.773Z,28.03
2018-04-29T13:51:35.833Z,26.53
2018-04-29T13:54:02.961Z,26.33
2018-04-29T13:56:29.052Z,26.73
2018-04-29T13:58:55.068Z,27.43
2018-04-29T14:01:21.225Z,27.50
2018-04-29T14:03:47.358Z,27.13
2018-04-29T14:06:13.416Z,26.77
2018-04-29T14:08:39.441Z,27.23
2018-04-29T14:11:06.213Z,26.47
2018-04-29T14:13:33.055Z,27.47
2018-04-29T14:15:59.933Z,27.30
2018-04-29T14:18:25.940Z,29.33
2018-04-29T14:20:51.969Z,30.13
2018-04-29T14:23:17.998Z,28.77
2018-04-29T14:25:44.023Z,32.23
2018-04-29T14:28:10.361Z,29.53
2018-04-29T14:30:36.479Z,30.70
2018-04-29T14:33:02.590Z,29.63
2018-04-29T14:35:28.613Z,29.73
2018-04-29T14:37:54.637Z,28.90
2018-04-29T14:40:20.661Z,30.77
2018-04-29T14:42:47.020Z,30.47
2018-04-29T14:45:13.056Z,29.70
2018-04-29T14:47:39.081Z,29.97
2018-04-29T14:50:05.146Z,28.73
2018-04-29T14:52:31.183Z,29.63
2018-04-29T14:54:57.218Z,29.43
2018-04-29T14:57:23.261Z,29.33
2018-04-29T14:59:49.337Z,30.07
2018-04-29T15:02:15.374Z,30.33
2018-04-29T15:04:41.421Z,29.77
2018-04-29T15:07:07.465Z,29.17
2018-04-29T15:09:33.541Z,30.83
2018-04-29T15:11:59.565Z,32.67
2018-04-29T15:14:26.439Z,30.17
2018-04-29T15:16:52.604Z,30.33
2018-04-29T15:19:19.358Z,29.63
2018-04-29T15:21:45.428Z,31.00
2018-04-29T15:24:11.489Z,30.30
2018-04-29T15:26:37.554Z,29.97
2018-04-29T15:29:03.609Z,29.83
2018-04-29T15:31:29.620Z,30.90
2018-04-29T15:33:55.726Z,29.07
2018-04-29T15:36:21.758Z,31.57
2018-04-29T15:38:47.841Z,31.27
2018-04-29T15:41:14.625Z,29.80
2018-04-29T15:43:40.672Z,30.57
2018-04-29T15:46:06.866Z,30.10
2018-04-29T15:48:32.911Z,30.50
2018-04-29T15:50:58.964Z,30.10
2018-04-29T15:53:24.981Z,31.53
2018-04-29T15:55:51.269Z,30.30
2018-04-29T15:58:17.320Z,32.33
2018-04-29T16:00:43.378Z,32.10
2018-04-29T16:03:09.399Z,31.47
2018-04-29T16:05:35.425Z,32.30
2018-04-29T16:08:01.532Z,35.70
2018-04-29T16:10:27.616Z,33.93
2018-04-29T16:12:53.701Z,32.70
2018-04-29T16:15:19.749Z,35.37
2018-04-29T16:17:45.789Z,34.60
2018-04-29T16:20:11.826Z,34.93
2018-04-29T16:22:37.917Z,36.27
2018-04-29T16:25:05.729Z,36.03
2018-04-29T16:27:31.761Z,39.17
2018-04-29T16:29:57.769Z,35.90
2018-04-29T16:32:23.786Z,33.87
2018-04-29T16:34:49.944Z,36.00
2018-04-29T16:37:15.961Z,37.20
2018-04-29T16:39:42.034Z,39.20
2018-04-29T16:42:08.081Z,40.17
2018-04-29T16:44:34.113Z,38.13
2018-04-29T16:47:00.218Z,39.80
2018-04-29T16:49:26.773Z,40.57
2018-04-29T16:51:52.794Z,40.30
2018-04-29T16:54:18.845Z,41.90
2018-04-29T16:56:44.881Z,40.37
2018-04-29T16:59:11.149Z,42.53
2018-04-29T17:01:37.193Z,41.67
2018-04-29T17:04:03.252Z,44.73
2018-04-29T17:06:29.273Z,43.07
2018-04-29T17:08:55.288Z,43.97
2018-04-29T17:11:21.361Z,44.47
2018-04-29T17:13:47.416Z,43.97
2018-04-29T17:16:14.060Z,45.20
2018-04-29T17:18:40.298Z,42.47
2018-04-29T17:21:06.304Z,43.70
2018-04-29T17:23:32.362Z,45.27
2018-04-29T17:25:58.468Z,50.30
2018-04-29T17:28:24.528Z,46.17
2018-04-29T17:30:50.536Z,46.17
2018-04-29T17:33:16.585Z,45.67
2018-04-29T17:35:42.681Z,44.67
2018-04-29T17:38:08.722Z,42.07
2018-04-29T17:40:34.741Z,47.17
2018-04-29T17:43:00.886Z,46.93
2018-04-29T17:45:27.581Z,50.27
2018-04-29T17:47:53.641Z,44.07
2018-04-29T17:50:19.820Z,45.67
2018-04-29T17:52:45.857Z,48.43
2018-04-29T17:55:11.908Z,44.93
2018-04-29T17:57:37.914Z,43.80
2018-04-29T18:00:04.010Z,46.77
2018-04-29T18:02:30.066Z,48.30
2018-04-29T18:04:56.077Z,48.30
2018-04-29T18:07:22.187Z,46.67
2018-04-29T18:09:48.193Z,45.27
2018-04-29T18:12:14.226Z,47.27
2018-04-29T18:14:40.280Z,49.33
2018-04-29T18:17:06.617Z,51.73
2018-04-29T18:19:32.562Z,47.03
2018-04-29T18:21:58.619Z,46.80
2018-04-29T18:24:24.637Z,46.53
2018-04-29T18:26:50.705Z,46.13
2018-04-29T18:29:16.741Z,45.87
2018-04-29T18:31:42.785Z,50.10
2018-04-29T18:34:08.826Z,50.23
2018-04-29T18:36:34.983Z,47.73
2018-04-29T18:39:01.070Z,51.47
2018-04-29T18:41:27.402Z,50.77
2018-04-29T18:43:53.557Z,53.90
2018-04-29T18:46:19.669Z,51.40
2018-04-29T18:48:45.718Z,61.07
2018-04-29T18:51:11.819Z,56.70
2018-04-29T18:53:37.797Z,61.13
2018-04-29T18:56:04.042Z,54.13
2018-04-29T18:58:30.077Z,59.67
2018-04-29T19:00:56.165Z,63.70
2018-04-29T19:03:22.485Z,61.67
2018-04-29T19:05:48.528Z,64.13
2018-04-29T19:08:14.556Z,58.30
2018-04-29T19:10:40.574Z,61.37
2018-04-29T19:13:06.630Z,62.93
2018-04-29T19:15:32.653Z,69.50
2018-04-29T19:17:59.344Z,73.60
2018-04-29T19:20:25.928Z,69.77
2018-04-29T19:22:51.942Z,72.70
2018-04-29T19:25:18.181Z,94.07
2018-04-29T19:27:44.230Z,66.47
2018-04-29T19:30:10.317Z,78.10
2018-04-29T19:32:36.326Z,71.30
2018-04-29T19:35:02.358Z,71.97
2018-04-29T19:37:28.453Z,86.67
2018-04-29T19:39:54.501Z,84.80
2018-04-29T19:42:20.546Z,73.20
2018-04-29T19:44:46.637Z,68.83
2018-04-29T19:47:12.658Z,71.27
2018-04-29T19:49:38.901Z,81.80
2018-04-29T19:52:04.885Z,72.23
2018-04-29T19:54:30.905Z,85.30
2018-04-29T19:56:56.937Z,97.33
2018-04-29T19:59:23.102Z,85.33
2018-04-29T20:01:49.104Z,70.67
2018-04-29T20:04:15.125Z,78.03
2018-04-29T20:06:41.469Z,85.47
2018-04-29T20:09:07.545Z,61.17
2018-04-29T20:11:33.719Z,79.33
2018-04-29T20:14:00.153Z,93.53
2018-04-29T20:16:26.225Z,99.53
2018-04-29T20:18:52.241Z,91.93
2018-04-29T20:21:18.329Z,90.60
2018-04-29T20:23:44.355Z,76.70
2018-04-29T20:26:10.377Z,60.27
2018-04-29T20:28:36.407Z,38.03
2018-04-29T20:31:02.439Z,36.77
2018-04-29T20:33:28.512Z,37.13
2018-04-29T20:35:54.562Z,29.63
2018-04-29T20:38:20.645Z,52.97
2018-04-29T20:40:46.829Z,58.43
2018-04-29T20:43:12.882Z,79.73
2018-04-29T20:45:38.949Z,90.57
2018-04-29T20:48:06.132Z,102.60
2018-04-29T20:50:32.358Z,85.40
2018-04-29T20:52:58.369Z,90.97
2018-04-29T20:55:24.457Z,87.27
2018-04-29T20:57:50.477Z,100.10
2018-04-29T21:00:16.838Z,86.37
2018-04-29T21:02:42.886Z,113.97
2018-04-29T21:05:08.910Z,84.70
2018-04-29T21:07:34.945Z,49.07
2018-04-29T21:10:01.421Z,74.20
2018-04-29T21:12:27.473Z,75.73
2018-04-29T21:14:53.565Z,66.57
2018-04-29T21:17:19.635Z,61.23
2018-04-29T21:19:45.841Z,42.37
2018-04-29T21:22:11.905Z,46.67
2018-04-29T21:24:38.337Z,55.87
2018-04-29T21:27:04.354Z,56.17
2018-04-29T21:29:30.384Z,37.13
2018-04-29T21:31:56.441Z,48.17
2018-04-29T21:34:22.548Z,45.57
2018-04-29T21:36:48.618Z,51.67
2018-04-29T21:39:14.673Z,45.83
2018-04-29T21:41:40.710Z,59.10
2018-04-29T21:44:06.751Z,52.87
2018-04-29T21:46:32.822Z,71.80
2018-04-29T21:48:59.169Z,66.27
2018-04-29T21:51:25.233Z,82.27
2018-04-29T21:53:51.250Z,98.93
2018-04-29T21:56:17.333Z,99.00
2018-04-29T21:58:43.371Z,101.67
2018-04-29T22:01:09.429Z,107.03
2018-04-29T22:03:35.936Z,147.57
2018-04-29T22:06:01.975Z,149.57
2018-04-29T22:08:27.997Z,172.07
2018-04-29T22:10:54.042Z,151.87
2018-04-29T22:13:20.681Z,148.13
2018-04-29T22:15:46.754Z,160.70
2018-04-29T22:18:13.325Z,198.53
2018-04-29T22:20:39.337Z,111.97
2018-04-29T22:23:05.461Z,119.90
2018-04-29T22:25:31.529Z,190.57
2018-04-29T22:27:57.808Z,178.73
2018-04-29T22:30:24.251Z,147.97
2018-04-29T22:32:50.397Z,151.77
2018-04-29T22:35:16.427Z,173.83
2018-04-29T22:37:42.593Z,148.90
2018-04-29T22:40:08.601Z,184.87
2018-04-29T22:42:35.241Z,153.73
2018-04-29T22:45:01.277Z,188.03
2018-04-29T22:47:27.305Z,187.87
2018-04-29T22:49:54.176Z,112.07
2018-04-29T22:52:20.205Z,215.67
2018-04-29T22:54:46.245Z,131.33
2018-04-29T22:57:12.397Z,203.10
2018-04-29T22:59:38.459Z,148.20
2018-04-29T23:02:04.893Z,195.47
2018-04-29T23:04:30.929Z,218.47
2018-04-29T23:06:56.977Z,145.30
2018-04-29T23:09:23.061Z,173.83
2018-04-29T23:11:49.105Z,251.53
2018-04-29T23:14:15.182Z,156.83
2018-04-29T23:16:41.578Z,162.30
2018-04-29T23:19:07.577Z,153.93
2018-04-29T23:21:33.646Z,140.07
2018-04-29T23:23:59.666Z,172.03
2018-04-29T23:26:25.762Z,199.23
2018-04-29T23:28:51.822Z,243.37
2018-04-29T23:31:17.886Z,146.50
2018-04-29T23:33:43.919Z,147.07
2018-04-29T23:36:09.935Z,140.43
2018-04-29T23:38:35.990Z,132.47
2018-04-29T23:41:02.245Z,331.93
2018-04-29T23:43:28.309Z,263.67
2018-04-29T23:45:55.110Z,200.03
2018-04-29T23:48:21.137Z,136.63
2018-04-29T23:50:47.237Z,190.40
2018-04-29T23:53:13.242Z,133.80
2018-04-29T23:55:39.273Z,131.17
2018-04-29T23:58:05.321Z,236.80
